Nathrop, Colorado
Current Conditions -  °F | °C
As of 8:15 PM on Saturday 25 Oct 2014 (Local Time) from KAEJ Reporting Station
Clear Clear  
Wind Chill: 44°   Ceiling: Unl
Heat Index: 47°   Visibility: 10mi
Dew Point: 18°   Wind: 7mph
Humidity: 31%   Direction: 280°W
Pressure: 30.25"   Gusts: NA
Location:  38.75°N, 106.08°W
Report Text: KAEJ 260215Z AUTO 28006KT 10SM CLR 09/M08 A3025 RMK AO2 T00851078
Loading
Personal Weather Stations






























Interactive Weather Map
Tropical Storm Tracking
New forecast layout! Learn more

10-Day Weather Forecast

Advertisements
Track Severe Weather on mobile